N124MC KPGA-UT25
Flight info
| Callsign | N124MC |
|---|---|
| Flight time | 0h 25m |
| Altitude | 7500 |
| Route | VFR |
| Aircraft | M20P/L-VGD/C |
Departure
| Time | 2026-05-05 17:37 |
|---|---|
| Airport | Page Municipal Airport (KPGA) |
Arrival
| Time | 2026-05-05 18:03 |
|---|---|
| Airport | Monument Valley Airport (UT25) |
| Time | Latitude | Longitude | Altitude | Speed | Heading |
|---|---|---|---|---|---|
| 2026-05-05 17:30 | 36.92566 | -111.45084 | 4271 ft | 0 kts | 261° |
| 2026-05-05 17:33 | 36.92566 | -111.45085 | 4271 ft | 1 kts | 261° |
| 2026-05-05 17:34 | 36.92578 | -111.45041 | 4272 ft | 11 kts | 88° |
| 2026-05-05 17:34 | 36.92586 | -111.44939 | 4267 ft | 12 kts | 89° |
| 2026-05-05 17:34 | 36.92502 | -111.44890 | 4282 ft | 19 kts | 170° |
| 2026-05-05 17:34 | 36.92361 | -111.44861 | 4287 ft | 21 kts | 169° |
| 2026-05-05 17:35 | 36.92210 | -111.44828 | 4293 ft | 23 kts | 170° |
| 2026-05-05 17:35 | 36.92050 | -111.44793 | 4301 ft | 24 kts | 170° |
| 2026-05-05 17:35 | 36.91883 | -111.44757 | 4309 ft | 25 kts | 169° |
| 2026-05-05 17:35 | 36.91717 | -111.44722 | 4316 ft | 21 kts | 171° |
| 2026-05-05 17:36 | 36.91675 | -111.44645 | 4318 ft | 14 kts | 76° |
| 2026-05-05 17:36 | 36.91813 | -111.44641 | 4313 ft | 37 kts | 350° |
| 2026-05-05 17:36 | 36.92199 | -111.44724 | 4316 ft | 71 kts | 349° |
| 2026-05-05 17:36 | 36.92725 | -111.44844 | 4445 ft | 84 kts | 353° |
| 2026-05-05 17:37 | 36.93350 | -111.44931 | 4635 ft | 94 kts | 1° |
| 2026-05-05 17:37 | 36.93797 | -111.44387 | 4898 ft | 104 kts | 82° |
| 2026-05-05 17:37 | 36.93845 | -111.43460 | 5150 ft | 107 kts | 77° |
| 2026-05-05 17:37 | 36.93969 | -111.42537 | 5407 ft | 109 kts | 88° |
| 2026-05-05 17:38 | 36.94003 | -111.41579 | 5657 ft | 111 kts | 90° |
| 2026-05-05 17:38 | 36.94017 | -111.40595 | 5916 ft | 115 kts | 90° |
| 2026-05-05 17:38 | 36.94035 | -111.39589 | 6177 ft | 117 kts | 90° |
| 2026-05-05 17:38 | 36.94055 | -111.38552 | 6422 ft | 121 kts | 90° |
| 2026-05-05 17:39 | 36.94079 | -111.37499 | 6664 ft | 122 kts | 90° |
| 2026-05-05 17:39 | 36.94107 | -111.36454 | 6900 ft | 121 kts | 90° |
| 2026-05-05 17:39 | 36.94138 | -111.35402 | 7144 ft | 121 kts | 90° |
| 2026-05-05 17:39 | 36.94175 | -111.34347 | 7391 ft | 123 kts | 90° |
| 2026-05-05 17:40 | 36.94207 | -111.33226 | 7494 ft | 139 kts | 91° |
| 2026-05-05 17:40 | 36.94239 | -111.31954 | 7515 ft | 154 kts | 91° |
| 2026-05-05 17:40 | 36.94278 | -111.30553 | 7498 ft | 167 kts | 90° |
| 2026-05-05 17:40 | 36.94312 | -111.29073 | 7489 ft | 174 kts | 90° |
| 2026-05-05 17:41 | 36.94343 | -111.27550 | 7482 ft | 177 kts | 91° |
| 2026-05-05 17:41 | 36.94378 | -111.25999 | 7476 ft | 180 kts | 90° |
| 2026-05-05 17:41 | 36.94415 | -111.24428 | 7472 ft | 183 kts | 91° |
| 2026-05-05 17:41 | 36.94455 | -111.22830 | 7454 ft | 184 kts | 91° |
| 2026-05-05 17:42 | 36.94496 | -111.21238 | 7451 ft | 183 kts | 91° |
| 2026-05-05 17:42 | 36.94535 | -111.19653 | 7446 ft | 182 kts | 90° |
| 2026-05-05 17:42 | 36.94576 | -111.18065 | 7440 ft | 183 kts | 90° |
| 2026-05-05 17:42 | 36.94611 | -111.16454 | 7427 ft | 188 kts | 91° |
| 2026-05-05 17:43 | 36.94642 | -111.14830 | 7417 ft | 186 kts | 91° |
| 2026-05-05 17:43 | 36.94684 | -111.13223 | 7413 ft | 185 kts | 90° |
| 2026-05-05 17:43 | 36.94731 | -111.11609 | 7392 ft | 186 kts | 90° |
| 2026-05-05 17:43 | 36.94782 | -111.10005 | 7398 ft | 184 kts | 90° |
| 2026-05-05 17:44 | 36.94827 | -111.08414 | 7402 ft | 183 kts | 91° |
| 2026-05-05 17:44 | 36.94873 | -111.06815 | 7393 ft | 185 kts | 90° |
| 2026-05-05 17:44 | 36.94922 | -111.05203 | 7372 ft | 185 kts | 91° |
| 2026-05-05 17:44 | 36.94973 | -111.03602 | 7432 ft | 184 kts | 90° |
| 2026-05-05 17:45 | 36.95027 | -111.02011 | 7486 ft | 184 kts | 90° |
| 2026-05-05 17:45 | 36.95074 | -111.00401 | 7495 ft | 184 kts | 91° |
| 2026-05-05 17:45 | 36.95117 | -110.98781 | 7482 ft | 189 kts | 90° |
| 2026-05-05 17:45 | 36.95154 | -110.97129 | 7481 ft | 191 kts | 90° |
| 2026-05-05 17:46 | 36.95203 | -110.95494 | 7492 ft | 191 kts | 89° |
| 2026-05-05 17:46 | 36.95250 | -110.93829 | 7485 ft | 191 kts | 92° |
| 2026-05-05 17:46 | 36.95297 | -110.92170 | 7488 ft | 190 kts | 91° |
| 2026-05-05 17:46 | 36.95339 | -110.90513 | 7493 ft | 192 kts | 90° |
| 2026-05-05 17:47 | 36.95380 | -110.88840 | 7479 ft | 192 kts | 91° |
| 2026-05-05 17:47 | 36.95435 | -110.87189 | 7475 ft | 189 kts | 90° |
| 2026-05-05 17:47 | 36.95495 | -110.85568 | 7484 ft | 186 kts | 89° |
| 2026-05-05 17:47 | 36.95554 | -110.83948 | 7475 ft | 186 kts | 91° |
| 2026-05-05 17:48 | 36.95618 | -110.82338 | 7471 ft | 185 kts | 91° |
| 2026-05-05 17:48 | 36.95681 | -110.80744 | 7491 ft | 183 kts | 89° |
| 2026-05-05 17:48 | 36.95741 | -110.79142 | 7488 ft | 185 kts | 90° |
| 2026-05-05 17:48 | 36.95799 | -110.77518 | 7500 ft | 188 kts | 91° |
| 2026-05-05 17:49 | 36.95856 | -110.75894 | 7496 ft | 187 kts | 90° |
| 2026-05-05 17:49 | 36.95919 | -110.74267 | 7502 ft | 188 kts | 91° |
| 2026-05-05 17:49 | 36.95984 | -110.72629 | 7503 ft | 190 kts | 90° |
| 2026-05-05 17:49 | 36.96045 | -110.70972 | 7496 ft | 191 kts | 90° |
| 2026-05-05 17:50 | 36.96114 | -110.69334 | 7505 ft | 184 kts | 90° |
| 2026-05-05 17:50 | 36.96183 | -110.67699 | 7492 ft | 190 kts | 90° |
| 2026-05-05 17:50 | 36.96248 | -110.66040 | 7499 ft | 193 kts | 91° |
| 2026-05-05 17:50 | 36.96312 | -110.64367 | 7502 ft | 192 kts | 90° |
| 2026-05-05 17:51 | 36.96378 | -110.62696 | 7496 ft | 192 kts | 90° |
| 2026-05-05 17:51 | 36.96441 | -110.61031 | 7501 ft | 193 kts | 90° |
| 2026-05-05 17:51 | 36.96509 | -110.59352 | 7502 ft | 193 kts | 90° |
| 2026-05-05 17:51 | 36.96567 | -110.57678 | 7513 ft | 194 kts | 91° |
| 2026-05-05 17:52 | 36.96626 | -110.55998 | 7496 ft | 193 kts | 90° |
| 2026-05-05 17:52 | 36.96674 | -110.54334 | 7496 ft | 191 kts | 90° |
| 2026-05-05 17:52 | 36.96719 | -110.52670 | 7502 ft | 192 kts | 90° |
| 2026-05-05 17:52 | 36.96755 | -110.50988 | 7504 ft | 194 kts | 94° |
| 2026-05-05 17:53 | 36.96663 | -110.49303 | 7500 ft | 194 kts | 100° |
| 2026-05-05 17:53 | 36.96494 | -110.47641 | 7498 ft | 192 kts | 100° |
| 2026-05-05 17:53 | 36.96316 | -110.45985 | 7499 ft | 193 kts | 101° |
| 2026-05-05 17:53 | 36.96292 | -110.44305 | 7480 ft | 194 kts | 89° |
| 2026-05-05 17:54 | 36.96379 | -110.42622 | 7485 ft | 194 kts | 88° |
| 2026-05-05 17:54 | 36.96306 | -110.40967 | 7500 ft | 190 kts | 108° |
| 2026-05-05 17:54 | 36.95910 | -110.39391 | 7495 ft | 190 kts | 112° |
| 2026-05-05 17:54 | 36.95495 | -110.37826 | 7495 ft | 192 kts | 112° |
| 2026-05-05 17:55 | 36.95063 | -110.36245 | 7487 ft | 192 kts | 111° |
| 2026-05-05 17:55 | 36.94642 | -110.34678 | 7488 ft | 188 kts | 113° |
| 2026-05-05 17:55 | 36.94232 | -110.33133 | 7487 ft | 187 kts | 112° |
| 2026-05-05 17:55 | 36.93825 | -110.31595 | 7488 ft | 186 kts | 112° |
| 2026-05-05 17:56 | 36.93442 | -110.30053 | 7477 ft | 186 kts | 105° |
| 2026-05-05 17:56 | 36.93491 | -110.28433 | 7487 ft | 189 kts | 81° |
| 2026-05-05 17:56 | 36.93784 | -110.26824 | 7486 ft | 189 kts | 78° |
| 2026-05-05 17:56 | 36.94094 | -110.25218 | 7491 ft | 191 kts | 78° |
| 2026-05-05 17:57 | 36.94411 | -110.23608 | 7490 ft | 191 kts | 78° |
| 2026-05-05 17:57 | 36.94724 | -110.22006 | 7488 ft | 187 kts | 78° |
| 2026-05-05 17:57 | 36.95045 | -110.20418 | 7492 ft | 189 kts | 77° |
| 2026-05-05 17:57 | 36.95356 | -110.18818 | 7490 ft | 190 kts | 78° |
| 2026-05-05 17:58 | 36.95671 | -110.17206 | 7488 ft | 191 kts | 78° |
| 2026-05-05 17:58 | 36.95980 | -110.15600 | 7488 ft | 190 kts | 78° |
| 2026-05-05 17:58 | 36.96540 | -110.14129 | 7455 ft | 191 kts | 44° |
| 2026-05-05 17:58 | 36.97698 | -110.13332 | 7196 ft | 192 kts | 17° |
| 2026-05-05 17:59 | 36.98968 | -110.12827 | 6943 ft | 190 kts | 15° |
| 2026-05-05 17:59 | 37.00207 | -110.12345 | 6705 ft | 188 kts | 15° |
| 2026-05-05 17:59 | 37.01465 | -110.11863 | 6488 ft | 180 kts | 15° |
| 2026-05-05 17:59 | 37.02559 | -110.11849 | 6453 ft | 142 kts | 329° |
| 2026-05-05 18:00 | 37.03065 | -110.12682 | 6464 ft | 110 kts | 287° |
| 2026-05-05 18:00 | 37.03302 | -110.13500 | 6345 ft | 95 kts | 283° |
| 2026-05-05 18:00 | 37.03365 | -110.14273 | 6155 ft | 87 kts | 265° |
| 2026-05-05 18:00 | 37.03376 | -110.15049 | 5925 ft | 90 kts | 271° |
| 2026-05-05 18:01 | 37.03401 | -110.15846 | 5682 ft | 94 kts | 269° |
| 2026-05-05 18:01 | 37.03395 | -110.16653 | 5558 ft | 91 kts | 268° |
| 2026-05-05 18:01 | 37.03371 | -110.17408 | 5458 ft | 79 kts | 267° |
| 2026-05-05 18:01 | 37.03357 | -110.18061 | 5442 ft | 77 kts | 269° |
| 2026-05-05 18:02 | 37.03336 | -110.18763 | 5347 ft | 83 kts | 258° |
| 2026-05-05 18:02 | 37.03052 | -110.19375 | 5344 ft | 76 kts | 241° |
| 2026-05-05 18:02 | 37.02741 | -110.19906 | 5316 ft | 79 kts | 228° |
| 2026-05-05 18:02 | 37.02256 | -110.20255 | 5184 ft | 85 kts | 192° |
| 2026-05-05 18:03 | 37.01730 | -110.20219 | 5183 ft | 54 kts | 178° |
| 2026-05-05 18:03 | 37.01447 | -110.20177 | 5207 ft | 26 kts | 165° |
| 2026-05-05 18:03 | 37.01318 | -110.20165 | 5219 ft | 11 kts | 176° |
| 2026-05-05 18:03 | 37.01252 | -110.20157 | 5225 ft | 11 kts | 173° |
| 2026-05-05 18:04 | 37.01148 | -110.20144 | 5234 ft | 19 kts | 174° |
| 2026-05-05 18:04 | 37.01076 | -110.20173 | 5239 ft | 0 kts | 177° |